sensor_id;sensor_type;location;lat;lon;timestamp;pressure;altitude;pressure_sealevel;temperature;humidity
57250;BME280;43102;52.014;-0.680;2022-08-27T00:00:00;101038;;;18.52;68.19
57250;BME280;43102;52.014;-0.680;2022-08-27T00:01:00;101029;;;18.58;68.30
57250;BME280;43102;52.014;-0.680;2022-08-27T00:02:00;101029;;;18.58;68.30
57250;BME280;43102;52.014;-0.680;2022-08-27T00:03:00;101029;;;18.58;68.30
57250;BME280;43102;52.014;-0.680;2022-08-27T00:04:00;101029;;;18.58;68.30
57250;BME280;43102;52.014;-0.680;2022-08-27T00:05:00;101029;;;18.58;68.30
57250;BME280;43102;52.014;-0.680;2022-08-27T00:06:00;101032;;;18.57;68.10
57250;BME280;43102;52.014;-0.680;2022-08-27T00:07:00;101032;;;18.57;68.10
57250;BME280;43102;52.014;-0.680;2022-08-27T00:08:00;101032;;;18.57;68.10
57250;BME280;43102;52.014;-0.680;2022-08-27T00:09:00;101032;;;18.57;68.10
57250;BME280;43102;52.014;-0.680;2022-08-27T00:10:00;101032;;;18.57;68.10
57250;BME280;43102;52.014;-0.680;2022-08-27T00:11:00;101032;;;18.51;68.23
57250;BME280;43102;52.014;-0.680;2022-08-27T00:12:00;101032;;;18.51;68.23
57250;BME280;43102;52.014;-0.680;2022-08-27T00:13:00;101032;;;18.51;68.23
57250;BME280;43102;52.014;-0.680;2022-08-27T00:14:00;101032;;;18.51;68.23
57250;BME280;43102;52.014;-0.680;2022-08-27T00:15:00;101032;;;18.51;68.23
57250;BME280;43102;52.014;-0.680;2022-08-27T00:16:00;101033;;;18.41;68.67
57250;BME280;43102;52.014;-0.680;2022-08-27T00:17:00;101033;;;18.41;68.67
57250;BME280;43102;52.014;-0.680;2022-08-27T00:18:00;101033;;;18.41;68.67
57250;BME280;43102;52.014;-0.680;2022-08-27T00:19:00;101033;;;18.41;68.67
57250;BME280;43102;52.014;-0.680;2022-08-27T00:20:00;101033;;;18.41;68.67
57250;BME280;43102;52.014;-0.680;2022-08-27T00:21:00;101031;;;18.39;68.68
57250;BME280;43102;52.014;-0.680;2022-08-27T00:22:00;101031;;;18.39;68.68
57250;BME280;43102;52.014;-0.680;2022-08-27T00:23:00;101031;;;18.39;68.68
57250;BME280;43102;52.014;-0.680;2022-08-27T00:24:00;101031;;;18.39;68.68
57250;BME280;43102;52.014;-0.680;2022-08-27T00:25:00;101031;;;18.39;68.68
57250;BME280;43102;52.014;-0.680;2022-08-27T00:26:00;101026;;;18.30;68.75
57250;BME280;43102;52.014;-0.680;2022-08-27T00:27:00;101026;;;18.30;68.75
57250;BME280;43102;52.014;-0.680;2022-08-27T00:28:00;101026;;;18.30;68.75
57250;BME280;43102;52.014;-0.680;2022-08-27T00:29:00;101026;;;18.30;68.75
57250;BME280;43102;52.014;-0.680;2022-08-27T00:30:00;101026;;;18.30;68.75
57250;BME280;43102;52.014;-0.680;2022-08-27T00:31:00;101027;;;18.20;68.87
57250;BME280;43102;52.014;-0.680;2022-08-27T00:32:00;101027;;;18.20;68.87
57250;BME280;43102;52.014;-0.680;2022-08-27T00:33:00;101027;;;18.20;68.87
57250;BME280;43102;52.014;-0.680;2022-08-27T00:34:00;101027;;;18.20;68.87
57250;BME280;43102;52.014;-0.680;2022-08-27T00:35:00;101027;;;18.20;68.87
57250;BME280;43102;52.014;-0.680;2022-08-27T00:36:00;101026;;;18.11;69.08
57250;BME280;43102;52.014;-0.680;2022-08-27T00:37:00;101026;;;18.11;69.08
57250;BME280;43102;52.014;-0.680;2022-08-27T00:38:00;101026;;;18.11;69.08
57250;BME280;43102;52.014;-0.680;2022-08-27T00:39:00;101026;;;18.11;69.08
57250;BME280;43102;52.014;-0.680;2022-08-27T00:40:00;101026;;;18.11;69.08
57250;BME280;43102;52.014;-0.680;2022-08-27T00:41:00;101028;;;18.01;69.36
57250;BME280;43102;52.014;-0.680;2022-08-27T00:42:00;101028;;;18.01;69.36
57250;BME280;43102;52.014;-0.680;2022-08-27T00:43:00;101028;;;18.01;69.36
57250;BME280;43102;52.014;-0.680;2022-08-27T00:44:00;101028;;;18.01;69.36
57250;BME280;43102;52.014;-0.680;2022-08-27T00:45:00;101028;;;18.01;69.36
57250;BME280;43102;52.014;-0.680;2022-08-27T00:46:02;101027;;;17.94;69.88
57250;BME280;43102;52.014;-0.680;2022-08-27T00:47:02;101027;;;17.94;69.88
57250;BME280;43102;52.014;-0.680;2022-08-27T00:48:00;101027;;;17.94;69.88
57250;BME280;43102;52.014;-0.680;2022-08-27T00:49:10;101027;;;17.94;69.88
57250;BME280;43102;52.014;-0.680;2022-08-27T00:50:02;101027;;;17.94;69.88
57250;BME280;43102;52.014;-0.680;2022-08-27T00:51:00;101025;;;17.90;69.93
57250;BME280;43102;52.014;-0.680;2022-08-27T00:52:02;101025;;;17.90;69.93
57250;BME280;43102;52.014;-0.680;2022-08-27T00:53:02;101025;;;17.90;69.93
57250;BME280;43102;52.014;-0.680;2022-08-27T00:54:00;101025;;;17.90;69.93
57250;BME280;43102;52.014;-0.680;2022-08-27T00:55:03;101025;;;17.90;69.93
57250;BME280;43102;52.014;-0.680;2022-08-27T00:56:02;101025;;;17.86;69.86
57250;BME280;43102;52.014;-0.680;2022-08-27T00:57:00;101025;;;17.86;69.86
57250;BME280;43102;52.014;-0.680;2022-08-27T00:58:17;101025;;;17.86;69.86
57250;BME280;43102;52.014;-0.680;2022-08-27T00:59:00;101025;;;17.86;69.86
57250;BME280;43102;52.014;-0.680;2022-08-27T01:00:00;101025;;;17.86;69.86
57250;BME280;43102;52.014;-0.680;2022-08-27T01:01:00;101020;;;17.74;70.10
57250;BME280;43102;52.014;-0.680;2022-08-27T01:02:00;101020;;;17.74;70.10
57250;BME280;43102;52.014;-0.680;2022-08-27T01:03:00;101020;;;17.74;70.10
57250;BME280;43102;52.014;-0.680;2022-08-27T01:04:01;101020;;;17.74;70.10
57250;BME280;43102;52.014;-0.680;2022-08-27T01:05:02;101020;;;17.74;70.10
57250;BME280;43102;52.014;-0.680;2022-08-27T01:06:00;101013;;;17.66;70.23
57250;BME280;43102;52.014;-0.680;2022-08-27T01:07:00;101013;;;17.66;70.23
57250;BME280;43102;52.014;-0.680;2022-08-27T01:08:02;101013;;;17.66;70.23
57250;BME280;43102;52.014;-0.680;2022-08-27T01:09:09;101013;;;17.66;70.23
57250;BME280;43102;52.014;-0.680;2022-08-27T01:10:00;101013;;;17.66;70.23
57250;BME280;43102;52.014;-0.680;2022-08-27T01:11:00;101010;;;17.50;70.44
57250;BME280;43102;52.014;-0.680;2022-08-27T01:12:00;101010;;;17.50;70.44
57250;BME280;43102;52.014;-0.680;2022-08-27T01:13:00;101010;;;17.50;70.44
57250;BME280;43102;52.014;-0.680;2022-08-27T01:14:01;101010;;;17.50;70.44
57250;BME280;43102;52.014;-0.680;2022-08-27T01:15:00;101010;;;17.50;70.44
57250;BME280;43102;52.014;-0.680;2022-08-27T01:16:00;101011;;;17.37;70.65
57250;BME280;43102;52.014;-0.680;2022-08-27T01:17:00;101011;;;17.37;70.65
57250;BME280;43102;52.014;-0.680;2022-08-27T01:18:02;101011;;;17.37;70.65
57250;BME280;43102;52.014;-0.680;2022-08-27T01:19:00;101011;;;17.37;70.65
57250;BME280;43102;52.014;-0.680;2022-08-27T01:20:00;101011;;;17.37;70.65
57250;BME280;43102;52.014;-0.680;2022-08-27T01:21:05;101019;;;17.18;70.97
57250;BME280;43102;52.014;-0.680;2022-08-27T01:25:01;101019;;;17.18;70.97
57250;BME280;43102;52.014;-0.680;2022-08-27T01:26:00;101021;;;17.18;70.99
57250;BME280;43102;52.014;-0.680;2022-08-27T01:27:00;101021;;;17.18;70.99
57250;BME280;43102;52.014;-0.680;2022-08-27T01:28:00;101021;;;17.18;70.99
57250;BME280;43102;52.014;-0.680;2022-08-27T01:29:00;101021;;;17.18;70.99
57250;BME280;43102;52.014;-0.680;2022-08-27T01:30:00;101021;;;17.18;70.99
57250;BME280;43102;52.014;-0.680;2022-08-27T01:31:00;101022;;;17.19;70.93
57250;BME280;43102;52.014;-0.680;2022-08-27T01:32:08;101022;;;17.19;70.93
57250;BME280;43102;52.014;-0.680;2022-08-27T01:33:00;101022;;;17.19;70.93
57250;BME280;43102;52.014;-0.680;2022-08-27T01:34:01;101022;;;17.19;70.93
57250;BME280;43102;52.014;-0.680;2022-08-27T01:35:00;101022;;;17.19;70.93
57250;BME280;43102;52.014;-0.680;2022-08-27T01:36:00;101025;;;17.08;71.26
57250;BME280;43102;52.014;-0.680;2022-08-27T01:37:00;101025;;;17.08;71.26
57250;BME280;43102;52.014;-0.680;2022-08-27T01:38:00;101025;;;17.08;71.26
57250;BME280;43102;52.014;-0.680;2022-08-27T01:39:00;101025;;;17.08;71.26
57250;BME280;43102;52.014;-0.680;2022-08-27T01:40:00;101025;;;17.08;71.26
57250;BME280;43102;52.014;-0.680;2022-08-27T01:41:00;101021;;;17.08;71.41
57250;BME280;43102;52.014;-0.680;2022-08-27T01:42:04;101021;;;17.08;71.41
57250;BME280;43102;52.014;-0.680;2022-08-27T01:43:00;101021;;;17.08;71.41
57250;BME280;43102;52.014;-0.680;2022-08-27T01:44:00;101021;;;17.08;71.41
57250;BME280;43102;52.014;-0.680;2022-08-27T01:45:03;101021;;;17.08;71.41
57250;BME280;43102;52.014;-0.680;2022-08-27T01:46:00;101024;;;17.06;71.65
57250;BME280;43102;52.014;-0.680;2022-08-27T01:47:00;101024;;;17.06;71.65
57250;BME280;43102;52.014;-0.680;2022-08-27T01:48:00;101024;;;17.06;71.65
57250;BME280;43102;52.014;-0.680;2022-08-27T01:49:00;101024;;;17.06;71.65
57250;BME280;43102;52.014;-0.680;2022-08-27T01:50:00;101024;;;17.06;71.65
57250;BME280;43102;52.014;-0.680;2022-08-27T01:51:00;101019;;;17.05;71.67
57250;BME280;43102;52.014;-0.680;2022-08-27T01:52:00;101019;;;17.05;71.67
57250;BME280;43102;52.014;-0.680;2022-08-27T01:53:06;101019;;;17.05;71.67
57250;BME280;43102;52.014;-0.680;2022-08-27T01:54:00;101019;;;17.05;71.67
57250;BME280;43102;52.014;-0.680;2022-08-27T01:55:00;101019;;;17.05;71.67
57250;BME280;43102;52.014;-0.680;2022-08-27T01:56:00;101024;;;17.03;71.78
57250;BME280;43102;52.014;-0.680;2022-08-27T01:57:00;101024;;;17.03;71.78
57250;BME280;43102;52.014;-0.680;2022-08-27T01:58:00;101024;;;17.03;71.78
57250;BME280;43102;52.014;-0.680;2022-08-27T01:59:00;101024;;;17.03;71.78
57250;BME280;43102;52.014;-0.680;2022-08-27T02:00:10;101024;;;17.03;71.78
57250;BME280;43102;52.014;-0.680;2022-08-27T02:01:01;101020;;;16.95;71.85
57250;BME280;43102;52.014;-0.680;2022-08-27T02:02:00;101020;;;16.95;71.85
57250;BME280;43102;52.014;-0.680;2022-08-27T02:03:00;101020;;;16.95;71.85
57250;BME280;43102;52.014;-0.680;2022-08-27T02:04:00;101020;;;16.95;71.85
57250;BME280;43102;52.014;-0.680;2022-08-27T02:05:00;101020;;;16.95;71.85
57250;BME280;43102;52.014;-0.680;2022-08-27T02:06:01;101023;;;16.87;71.82
57250;BME280;43102;52.014;-0.680;2022-08-27T02:07:00;101023;;;16.87;71.82
57250;BME280;43102;52.014;-0.680;2022-08-27T02:08:00;101023;;;16.87;71.82
57250;BME280;43102;52.014;-0.680;2022-08-27T02:09:00;101023;;;16.87;71.82
57250;BME280;43102;52.014;-0.680;2022-08-27T02:10:00;101023;;;16.87;71.82
57250;BME280;43102;52.014;-0.680;2022-08-27T02:11:00;101022;;;16.65;72.29
57250;BME280;43102;52.014;-0.680;2022-08-27T02:12:00;101022;;;16.65;72.29
57250;BME280;43102;52.014;-0.680;2022-08-27T02:13:00;101022;;;16.65;72.29
57250;BME280;43102;52.014;-0.680;2022-08-27T02:14:00;101022;;;16.65;72.29
57250;BME280;43102;52.014;-0.680;2022-08-27T02:15:00;101022;;;16.65;72.29
57250;BME280;43102;52.014;-0.680;2022-08-27T02:16:00;101016;;;16.68;72.58
57250;BME280;43102;52.014;-0.680;2022-08-27T02:17:00;101016;;;16.68;72.58
57250;BME280;43102;52.014;-0.680;2022-08-27T02:18:00;101016;;;16.68;72.58
57250;BME280;43102;52.014;-0.680;2022-08-27T02:19:00;101016;;;16.68;72.58
57250;BME280;43102;52.014;-0.680;2022-08-27T02:20:00;101016;;;16.68;72.58
57250;BME280;43102;52.014;-0.680;2022-08-27T02:21:00;101015;;;16.65;72.52
57250;BME280;43102;52.014;-0.680;2022-08-27T02:22:00;101015;;;16.65;72.52
57250;BME280;43102;52.014;-0.680;2022-08-27T02:23:00;101015;;;16.65;72.52
57250;BME280;43102;52.014;-0.680;2022-08-27T02:24:00;101015;;;16.65;72.52
57250;BME280;43102;52.014;-0.680;2022-08-27T02:25:00;101015;;;16.65;72.52
57250;BME280;43102;52.014;-0.680;2022-08-27T02:26:00;101014;;;16.58;72.60
57250;BME280;43102;52.014;-0.680;2022-08-27T02:27:00;101014;;;16.58;72.60
57250;BME280;43102;52.014;-0.680;2022-08-27T02:28:00;101014;;;16.58;72.60
57250;BME280;43102;52.014;-0.680;2022-08-27T02:29:00;101014;;;16.58;72.60
57250;BME280;43102;52.014;-0.680;2022-08-27T02:30:00;101014;;;16.58;72.60
57250;BME280;43102;52.014;-0.680;2022-08-27T02:31:00;101012;;;16.50;72.99
57250;BME280;43102;52.014;-0.680;2022-08-27T02:32:00;101012;;;16.50;72.99
57250;BME280;43102;52.014;-0.680;2022-08-27T02:33:00;101012;;;16.50;72.99
57250;BME280;43102;52.014;-0.680;2022-08-27T02:34:00;101012;;;16.50;72.99
57250;BME280;43102;52.014;-0.680;2022-08-27T02:35:00;101012;;;16.50;72.99
57250;BME280;43102;52.014;-0.680;2022-08-27T02:36:00;101009;;;16.53;72.74
57250;BME280;43102;52.014;-0.680;2022-08-27T02:37:00;101009;;;16.53;72.74
57250;BME280;43102;52.014;-0.680;2022-08-27T02:38:00;101009;;;16.53;72.74
57250;BME280;43102;52.014;-0.680;2022-08-27T02:39:00;101009;;;16.53;72.74
57250;BME280;43102;52.014;-0.680;2022-08-27T02:40:00;101009;;;16.53;72.74
57250;BME280;43102;52.014;-0.680;2022-08-27T02:41:00;101010;;;16.45;72.79
57250;BME280;43102;52.014;-0.680;2022-08-27T02:42:00;101010;;;16.45;72.79
57250;BME280;43102;52.014;-0.680;2022-08-27T02:43:00;101010;;;16.45;72.79
57250;BME280;43102;52.014;-0.680;2022-08-27T02:44:00;101010;;;16.45;72.79
57250;BME280;43102;52.014;-0.680;2022-08-27T02:45:00;101010;;;16.45;72.79
57250;BME280;43102;52.014;-0.680;2022-08-27T02:46:00;101009;;;16.39;72.97
57250;BME280;43102;52.014;-0.680;2022-08-27T02:47:00;101009;;;16.39;72.97
57250;BME280;43102;52.014;-0.680;2022-08-27T02:48:00;101009;;;16.39;72.97
57250;BME280;43102;52.014;-0.680;2022-08-27T02:49:00;101009;;;16.39;72.97
57250;BME280;43102;52.014;-0.680;2022-08-27T02:50:00;101009;;;16.39;72.97
57250;BME280;43102;52.014;-0.680;2022-08-27T02:51:00;101009;;;16.40;72.85
57250;BME280;43102;52.014;-0.680;2022-08-27T02:52:00;101009;;;16.40;72.85
57250;BME280;43102;52.014;-0.680;2022-08-27T02:53:00;101009;;;16.40;72.85
57250;BME280;43102;52.014;-0.680;2022-08-27T02:54:00;101009;;;16.40;72.85
57250;BME280;43102;52.014;-0.680;2022-08-27T02:55:00;101009;;;16.40;72.85
57250;BME280;43102;52.014;-0.680;2022-08-27T02:56:00;101008;;;16.36;73.07
57250;BME280;43102;52.014;-0.680;2022-08-27T02:57:00;101008;;;16.36;73.07
57250;BME280;43102;52.014;-0.680;2022-08-27T02:58:00;101008;;;16.36;73.07
57250;BME280;43102;52.014;-0.680;2022-08-27T02:59:00;101008;;;16.36;73.07
57250;BME280;43102;52.014;-0.680;2022-08-27T03:00:01;101008;;;16.36;73.07
57250;BME280;43102;52.014;-0.680;2022-08-27T03:01:00;101005;;;16.33;73.38
57250;BME280;43102;52.014;-0.680;2022-08-27T03:02:00;101005;;;16.33;73.38
57250;BME280;43102;52.014;-0.680;2022-08-27T03:03:00;101005;;;16.33;73.38
57250;BME280;43102;52.014;-0.680;2022-08-27T03:04:00;101005;;;16.33;73.38
57250;BME280;43102;52.014;-0.680;2022-08-27T03:05:00;101005;;;16.33;73.38
57250;BME280;43102;52.014;-0.680;2022-08-27T03:06:00;101004;;;16.35;73.36
57250;BME280;43102;52.014;-0.680;2022-08-27T03:07:00;101004;;;16.35;73.36
57250;BME280;43102;52.014;-0.680;2022-08-27T03:08:00;101004;;;16.35;73.36
57250;BME280;43102;52.014;-0.680;2022-08-27T03:09:00;101004;;;16.35;73.36
57250;BME280;43102;52.014;-0.680;2022-08-27T03:10:00;101004;;;16.35;73.36
57250;BME280;43102;52.014;-0.680;2022-08-27T03:11:00;101011;;;16.32;73.23
57250;BME280;43102;52.014;-0.680;2022-08-27T03:12:00;101011;;;16.32;73.23
57250;BME280;43102;52.014;-0.680;2022-08-27T03:13:00;101011;;;16.32;73.23
57250;BME280;43102;52.014;-0.680;2022-08-27T03:14:00;101011;;;16.32;73.23
57250;BME280;43102;52.014;-0.680;2022-08-27T03:15:00;101011;;;16.32;73.23
57250;BME280;43102;52.014;-0.680;2022-08-27T03:16:00;101011;;;16.20;73.42
57250;BME280;43102;52.014;-0.680;2022-08-27T03:17:00;101011;;;16.20;73.42
57250;BME280;43102;52.014;-0.680;2022-08-27T03:18:00;101011;;;16.20;73.42
57250;BME280;43102;52.014;-0.680;2022-08-27T03:19:00;101011;;;16.20;73.42
57250;BME280;43102;52.014;-0.680;2022-08-27T03:20:00;101011;;;16.20;73.42
57250;BME280;43102;52.014;-0.680;2022-08-27T03:21:00;101009;;;16.15;73.41
57250;BME280;43102;52.014;-0.680;2022-08-27T03:22:00;101009;;;16.15;73.41
57250;BME280;43102;52.014;-0.680;2022-08-27T03:23:00;101009;;;16.15;73.41
57250;BME280;43102;52.014;-0.680;2022-08-27T03:24:00;101009;;;16.15;73.41
57250;BME280;43102;52.014;-0.680;2022-08-27T03:25:00;101009;;;16.15;73.41
57250;BME280;43102;52.014;-0.680;2022-08-27T03:26:01;101012;;;16.13;73.31
57250;BME280;43102;52.014;-0.680;2022-08-27T03:27:00;101012;;;16.13;73.31
57250;BME280;43102;52.014;-0.680;2022-08-27T03:28:00;101012;;;16.13;73.31
57250;BME280;43102;52.014;-0.680;2022-08-27T03:29:00;101012;;;16.13;73.31
57250;BME280;43102;52.014;-0.680;2022-08-27T03:30:00;101012;;;16.13;73.31
57250;BME280;43102;52.014;-0.680;2022-08-27T03:31:01;101014;;;16.08;73.27
57250;BME280;43102;52.014;-0.680;2022-08-27T03:32:00;101014;;;16.08;73.27
57250;BME280;43102;52.014;-0.680;2022-08-27T03:33:00;101014;;;16.08;73.27
57250;BME280;43102;52.014;-0.680;2022-08-27T03:34:01;101014;;;16.08;73.27
57250;BME280;43102;52.014;-0.680;2022-08-27T03:35:00;101014;;;16.08;73.27
57250;BME280;43102;52.014;-0.680;2022-08-27T03:36:00;101017;;;15.95;73.54
57250;BME280;43102;52.014;-0.680;2022-08-27T03:37:00;101017;;;15.95;73.54
57250;BME280;43102;52.014;-0.680;2022-08-27T03:38:00;101017;;;15.95;73.54
57250;BME280;43102;52.014;-0.680;2022-08-27T03:39:00;101017;;;15.95;73.54
57250;BME280;43102;52.014;-0.680;2022-08-27T03:40:00;101017;;;15.95;73.54
57250;BME280;43102;52.014;-0.680;2022-08-27T03:41:00;101016;;;15.90;73.56
57250;BME280;43102;52.014;-0.680;2022-08-27T03:42:00;101016;;;15.90;73.56
57250;BME280;43102;52.014;-0.680;2022-08-27T03:43:00;101016;;;15.90;73.56
57250;BME280;43102;52.014;-0.680;2022-08-27T03:44:00;101016;;;15.90;73.56
57250;BME280;43102;52.014;-0.680;2022-08-27T03:45:00;101016;;;15.90;73.56
57250;BME280;43102;52.014;-0.680;2022-08-27T03:46:00;101017;;;15.78;74.05
57250;BME280;43102;52.014;-0.680;2022-08-27T03:47:00;101017;;;15.78;74.05
57250;BME280;43102;52.014;-0.680;2022-08-27T03:48:00;101017;;;15.78;74.05
57250;BME280;43102;52.014;-0.680;2022-08-27T03:49:00;101017;;;15.78;74.05
57250;BME280;43102;52.014;-0.680;2022-08-27T03:50:00;101017;;;15.78;74.05
57250;BME280;43102;52.014;-0.680;2022-08-27T03:51:09;101020;;;15.76;74.02
57250;BME280;43102;52.014;-0.680;2022-08-27T03:52:00;101020;;;15.76;74.02
57250;BME280;43102;52.014;-0.680;2022-08-27T03:53:00;101020;;;15.76;74.02
57250;BME280;43102;52.014;-0.680;2022-08-27T03:54:00;101020;;;15.76;74.02
57250;BME280;43102;52.014;-0.680;2022-08-27T03:55:00;101020;;;15.76;74.02
57250;BME280;43102;52.014;-0.680;2022-08-27T03:56:00;101023;;;15.71;73.97
57250;BME280;43102;52.014;-0.680;2022-08-27T03:57:00;101023;;;15.71;73.97
57250;BME280;43102;52.014;-0.680;2022-08-27T03:58:00;101023;;;15.71;73.97
57250;BME280;43102;52.014;-0.680;2022-08-27T03:59:00;101023;;;15.71;73.97
57250;BME280;43102;52.014;-0.680;2022-08-27T04:00:00;101023;;;15.71;73.97
57250;BME280;43102;52.014;-0.680;2022-08-27T04:01:00;101027;;;15.65;73.96
57250;BME280;43102;52.014;-0.680;2022-08-27T04:02:00;101027;;;15.65;73.96
57250;BME280;43102;52.014;-0.680;2022-08-27T04:03:00;101027;;;15.65;73.96
57250;BME280;43102;52.014;-0.680;2022-08-27T04:04:00;101027;;;15.65;73.96
57250;BME280;43102;52.014;-0.680;2022-08-27T04:05:00;101027;;;15.65;73.96
57250;BME280;43102;52.014;-0.680;2022-08-27T04:06:00;101019;;;15.61;74.12
57250;BME280;43102;52.014;-0.680;2022-08-27T04:07:00;101019;;;15.61;74.12
57250;BME280;43102;52.014;-0.680;2022-08-27T04:08:00;101019;;;15.61;74.12
57250;BME280;43102;52.014;-0.680;2022-08-27T04:09:00;101019;;;15.61;74.12
57250;BME280;43102;52.014;-0.680;2022-08-27T04:10:00;101019;;;15.61;74.12
57250;BME280;43102;52.014;-0.680;2022-08-27T04:11:03;101012;;;15.61;74.06
57250;BME280;43102;52.014;-0.680;2022-08-27T04:12:00;101012;;;15.61;74.06
57250;BME280;43102;52.014;-0.680;2022-08-27T04:13:00;101012;;;15.61;74.06
57250;BME280;43102;52.014;-0.680;2022-08-27T04:14:01;101012;;;15.61;74.06
57250;BME280;43102;52.014;-0.680;2022-08-27T04:15:00;101012;;;15.61;74.06
57250;BME280;43102;52.014;-0.680;2022-08-27T04:16:00;101008;;;15.59;74.31
57250;BME280;43102;52.014;-0.680;2022-08-27T04:17:00;101008;;;15.59;74.31
57250;BME280;43102;52.014;-0.680;2022-08-27T04:18:00;101008;;;15.59;74.31
57250;BME280;43102;52.014;-0.680;2022-08-27T04:19:00;101008;;;15.59;74.31
57250;BME280;43102;52.014;-0.680;2022-08-27T04:20:00;101008;;;15.59;74.31
57250;BME280;43102;52.014;-0.680;2022-08-27T04:21:05;101009;;;15.54;74.33
57250;BME280;43102;52.014;-0.680;2022-08-27T04:22:01;101009;;;15.54;74.33
57250;BME280;43102;52.014;-0.680;2022-08-27T04:23:00;101009;;;15.54;74.33
57250;BME280;43102;52.014;-0.680;2022-08-27T04:24:00;101009;;;15.54;74.33
57250;BME280;43102;52.014;-0.680;2022-08-27T04:25:00;101009;;;15.54;74.33
57250;BME280;43102;52.014;-0.680;2022-08-27T04:26:02;101004;;;15.44;74.56
57250;BME280;43102;52.014;-0.680;2022-08-27T04:27:00;101004;;;15.44;74.56
57250;BME280;43102;52.014;-0.680;2022-08-27T04:28:00;101004;;;15.44;74.56
57250;BME280;43102;52.014;-0.680;2022-08-27T04:29:00;101004;;;15.44;74.56
57250;BME280;43102;52.014;-0.680;2022-08-27T04:30:00;101004;;;15.44;74.56
57250;BME280;43102;52.014;-0.680;2022-08-27T04:31:01;101005;;;15.35;74.71
57250;BME280;43102;52.014;-0.680;2022-08-27T04:32:00;101005;;;15.35;74.71
57250;BME280;43102;52.014;-0.680;2022-08-27T04:33:00;101005;;;15.35;74.71
57250;BME280;43102;52.014;-0.680;2022-08-27T04:34:00;101005;;;15.35;74.71
57250;BME280;43102;52.014;-0.680;2022-08-27T04:35:00;101005;;;15.35;74.71
57250;BME280;43102;52.014;-0.680;2022-08-27T04:36:01;101006;;;15.21;74.86
57250;BME280;43102;52.014;-0.680;2022-08-27T04:37:00;101006;;;15.21;74.86
57250;BME280;43102;52.014;-0.680;2022-08-27T04:38:00;101006;;;15.21;74.86
57250;BME280;43102;52.014;-0.680;2022-08-27T04:39:00;101006;;;15.21;74.86
57250;BME280;43102;52.014;-0.680;2022-08-27T04:40:00;101006;;;15.21;74.86
57250;BME280;43102;52.014;-0.680;2022-08-27T04:41:02;101004;;;15.18;74.93
57250;BME280;43102;52.014;-0.680;2022-08-27T04:42:00;101004;;;15.18;74.93
57250;BME280;43102;52.014;-0.680;2022-08-27T04:43:00;101004;;;15.18;74.93
57250;BME280;43102;52.014;-0.680;2022-08-27T04:44:02;101004;;;15.18;74.93
57250;BME280;43102;52.014;-0.680;2022-08-27T04:45:00;101004;;;15.18;74.93
57250;BME280;43102;52.014;-0.680;2022-08-27T04:46:00;101004;;;15.06;75.29
57250;BME280;43102;52.014;-0.680;2022-08-27T04:47:00;101004;;;15.06;75.29
57250;BME280;43102;52.014;-0.680;2022-08-27T04:48:00;101004;;;15.06;75.29
57250;BME280;43102;52.014;-0.680;2022-08-27T04:49:01;101004;;;15.06;75.29
57250;BME280;43102;52.014;-0.680;2022-08-27T04:50:00;101004;;;15.06;75.29
57250;BME280;43102;52.014;-0.680;2022-08-27T04:51:00;101007;;;14.94;75.40
57250;BME280;43102;52.014;-0.680;2022-08-27T04:52:00;101007;;;14.94;75.40
57250;BME280;43102;52.014;-0.680;2022-08-27T04:53:00;101007;;;14.94;75.40
57250;BME280;43102;52.014;-0.680;2022-08-27T04:54:00;101007;;;14.94;75.40
57250;BME280;43102;52.014;-0.680;2022-08-27T04:55:00;101007;;;14.94;75.40
57250;BME280;43102;52.014;-0.680;2022-08-27T04:56:00;101009;;;14.95;75.23
57250;BME280;43102;52.014;-0.680;2022-08-27T04:57:01;101009;;;14.95;75.23
57250;BME280;43102;52.014;-0.680;2022-08-27T04:58:00;101009;;;14.95;75.23
57250;BME280;43102;52.014;-0.680;2022-08-27T04:59:00;101009;;;14.95;75.23
57250;BME280;43102;52.014;-0.680;2022-08-27T05:00:00;101009;;;14.95;75.23
57250;BME280;43102;52.014;-0.680;2022-08-27T05:01:00;101009;;;14.91;75.48
57250;BME280;43102;52.014;-0.680;2022-08-27T05:02:00;101009;;;14.91;75.48
57250;BME280;43102;52.014;-0.680;2022-08-27T05:03:00;101009;;;14.91;75.48
57250;BME280;43102;52.014;-0.680;2022-08-27T05:04:00;101009;;;14.91;75.48
57250;BME280;43102;52.014;-0.680;2022-08-27T05:05:00;101009;;;14.91;75.48
57250;BME280;43102;52.014;-0.680;2022-08-27T05:06:01;101009;;;15.01;75.37
57250;BME280;43102;52.014;-0.680;2022-08-27T05:07:00;101009;;;15.01;75.37
57250;BME280;43102;52.014;-0.680;2022-08-27T05:08:00;101009;;;15.01;75.37
57250;BME280;43102;52.014;-0.680;2022-08-27T05:09:00;101009;;;15.01;75.37
57250;BME280;43102;52.014;-0.680;2022-08-27T05:10:00;101009;;;15.01;75.37
57250;BME280;43102;52.014;-0.680;2022-08-27T05:11:00;101010;;;15.04;75.44
57250;BME280;43102;52.014;-0.680;2022-08-27T05:12:00;101010;;;15.04;75.44
57250;BME280;43102;52.014;-0.680;2022-08-27T05:13:00;101010;;;15.04;75.44
57250;BME280;43102;52.014;-0.680;2022-08-27T05:14:01;101010;;;15.04;75.44
57250;BME280;43102;52.014;-0.680;2022-08-27T05:15:00;101010;;;15.04;75.44
57250;BME280;43102;52.014;-0.680;2022-08-27T05:16:01;101018;;;14.89;75.67
57250;BME280;43102;52.014;-0.680;2022-08-27T05:17:00;101018;;;14.89;75.67
57250;BME280;43102;52.014;-0.680;2022-08-27T05:18:00;101018;;;14.89;75.67
57250;BME280;43102;52.014;-0.680;2022-08-27T05:19:00;101018;;;14.89;75.67
57250;BME280;43102;52.014;-0.680;2022-08-27T05:20:00;101018;;;14.89;75.67
57250;BME280;43102;52.014;-0.680;2022-08-27T05:21:00;101016;;;14.94;75.66
57250;BME280;43102;52.014;-0.680;2022-08-27T05:22:00;101016;;;14.94;75.66
57250;BME280;43102;52.014;-0.680;2022-08-27T05:23:00;101016;;;14.94;75.66
57250;BME280;43102;52.014;-0.680;2022-08-27T05:24:00;101016;;;14.94;75.66